Relatórios de METAR próximas

 

LPAR - Alverca, Portugal
Distance from station: S 38km
Actualizado: 24/04/2019 17:00
NÃO Actual
Nearby showers, Algumas Nuvens
Nearby showers, Algumas Nuvens
 Vento de OSO
Vento: OSO 26 km/h
Temperatura: 16°C
Ponto de Orvalho: 13°C
Humidade: 83%
Barómetro: 1005 hPa
Resumo: Nearby Showers
Nuvens: Few Clouds
Visibilidade: 10 km
Cloud details: Parc. Nublado 610 m
Few Clouds 671 m
2019/04/24 16:00 LPAR 241600Z 24014KT 9999 VCSH SCT020 FEW022TCU 16/13 Q1005
LPPT - Lisbon/Portela, Portugal
Distance from station: S 52km
Actualizado: 26/04/2019 02:30
Parc. Nublado
Parc. Nublado
 Vento de O
Vento: O 7 km/h
Temperatura: 12°C
Ponto de Orvalho: 9°C
Humidade: 82%
Barómetro: 1024 hPa
Nuvens: Parc. Nublado
Visibilidade: 10 km
Cloud details: Few Clouds 610 m
Parc. Nublado 1158 m
2019/04/26 01:30 LPPT 260130Z 28004KT 210V360 9999 FEW020 SCT038 12/09 Q1024
 
LPST - Sintra/Granja (a, Portugal
Distance from station: SSO 53km
Actualizado: 24/04/2019 17:00
NÃO Actual
Muito Nublado
Muito Nublado
 Vento de OSO
Vento: OSO 35 km/h, Rajada: 57 km/h
Temperatura: 16°C
Ponto de Orvalho: 12°C
Humidade: 77%
Barómetro: 1005 hPa
Nuvens: Muito Nublado
Visibilidade: 10 km
Cloud details: Muito Nublado 610 m
2019/04/24 16:00 LPST 241600Z 24019G31KT 9999 BKN020 16/12 Q1005
LPMT - Montijo (por-Afb, Portugal
Distance from station: S 59km
Actualizado: 26/04/2019 02:00
Few Clouds
Few Clouds
 Vento de NO
Vento: NO 6 km/h
Temperatura: 13°C
Ponto de Orvalho: 9°C
Humidade: 77%
Barómetro: 1024 hPa
Nuvens: Few Clouds
Visibilidade: 10 km
Cloud details: Few Clouds 762 m
2019/04/26 01:00 LPMT 260100Z 32003KT 270V010 9999 FEW025 13/09 Q1024
 
LPCS - Cascais, Portugal
Distance from station: SSO 63km
Actualizado: 25/04/2019 21:00
NÃO Actual
Few Clouds
Few Clouds
 Vento de ONO
Vento: ONO 17 km/h
Temperatura: 13°C
Ponto de Orvalho: 8°C
Humidade: 72%
Barómetro: 1021 hPa
Nuvens: Few Clouds
Visibilidade: 10 km
Cloud details: Few Clouds 671 m
2019/04/25 20:00 LPCS 252000Z 30009KT 9999 FEW022 13/08 Q1021
LPMR - Monte Real(Por-A, Portugal
Distance from station: N 67km
Actualizado: 26/04/2019 02:00
Parc. Nublado
Parc. Nublado
 Vento de NO
Vento: NO 11 km/h
Temperatura: 13°C
Ponto de Orvalho: 10°C
Humidade: 82%
Barómetro: 1023 hPa
Nuvens: Parc. Nublado
Visibilidade: 10 km
Cloud details: Parc. Nublado 610 m
2019/04/26 01:00 LPMR 260100Z 31006KT 9999 SCT020 13/10 Q1023